createdAt,value
2022-09-06T00:00:43.358Z,101297.44
2022-09-06T00:03:16.448Z,101298.78
2022-09-06T00:05:49.167Z,101314.75
2022-09-06T00:08:21.661Z,101348.84
2022-09-06T00:11:01.116Z,101415.59
2022-09-06T00:13:33.987Z,101421.88
2022-09-06T00:16:07.591Z,101422.94
2022-09-06T00:18:41.174Z,101432.78
2022-09-06T00:21:18.813Z,101456.78
2022-09-06T00:23:51.693Z,101447.09
2022-09-06T00:26:24.165Z,101414.22
2022-09-06T00:28:56.603Z,101405.84
2022-09-06T00:31:29.232Z,101413.56
2022-09-06T00:34:02.664Z,101416.03
2022-09-06T00:36:35.050Z,101401.00
2022-09-06T00:39:07.447Z,101379.78
2022-09-06T00:41:40.052Z,101388.16
2022-09-06T00:44:12.880Z,101406.34
2022-09-06T00:46:46.216Z,101405.53
2022-09-06T00:49:26.238Z,101391.28
2022-09-06T00:52:03.573Z,101394.38
2022-09-06T00:54:36.243Z,101384.81
2022-09-06T00:57:12.396Z,101368.06
2022-09-06T00:59:45.905Z,101369.94
2022-09-06T01:02:18.789Z,101371.03
2022-09-06T01:04:52.147Z,101361.00
2022-09-06T01:07:24.499Z,101353.63
2022-09-06T01:10:18.065Z,101354.59
2022-09-06T01:13:09.319Z,101338.50
2022-09-06T01:15:45.148Z,101334.66
2022-09-06T01:18:17.589Z,101338.22
2022-09-06T01:20:59.184Z,101332.97
2022-09-06T01:23:50.354Z,101332.53
2022-09-06T01:26:37.931Z,101331.44
2022-09-06T01:29:16.158Z,101329.22
2022-09-06T01:31:51.760Z,101325.53
2022-09-06T01:34:29.701Z,101319.94
2022-09-06T01:37:10.177Z,101312.69
2022-09-06T01:39:45.687Z,101288.66
2022-09-06T01:42:18.038Z,101271.03
2022-09-06T01:44:55.249Z,101261.72
2022-09-06T01:47:33.902Z,101257.97
2022-09-06T01:50:12.247Z,101245.22
2022-09-06T01:52:44.631Z,101229.09
2022-09-06T01:55:35.333Z,101204.59
2022-09-06T01:58:16.891Z,101189.22
2022-09-06T02:00:58.963Z,101178.53
2022-09-06T02:03:41.865Z,101164.28
2022-09-06T02:06:26.623Z,101158.06
2022-09-06T02:09:21.316Z,101174.66
2022-09-06T02:11:56.228Z,101188.72
2022-09-06T02:14:31.650Z,101184.69
2022-09-06T02:17:05.778Z,101189.94
2022-09-06T02:19:47.724Z,101189.94
2022-09-06T02:22:23.399Z,101179.72
2022-09-06T02:25:01.837Z,101180.34
2022-09-06T02:27:34.461Z,101190.06
2022-09-06T02:30:07.116Z,101184.94
2022-09-06T02:32:44.439Z,101181.19
2022-09-06T02:35:17.374Z,101174.53
2022-09-06T02:37:50.204Z,101163.50
2022-09-06T02:40:27.202Z,101162.56
2022-09-06T02:42:59.608Z,101164.41
2022-09-06T02:45:31.999Z,101168.69
2022-09-06T02:48:04.472Z,101172.19
2022-09-06T02:50:37.072Z,101176.34
2022-09-06T02:53:11.415Z,101181.91
2022-09-06T02:55:45.679Z,101192.72
2022-09-06T02:58:18.185Z,101194.25
2022-09-06T03:00:51.655Z,101186.81
2022-09-06T03:03:24.930Z,101191.75
2022-09-06T03:05:57.357Z,101196.97
2022-09-06T03:08:33.408Z,101203.78
2022-09-06T03:11:05.924Z,101202.22
2022-09-06T03:13:38.401Z,101198.22
2022-09-06T03:16:10.919Z,101197.09
2022-09-06T03:18:43.433Z,101194.03
2022-09-06T03:21:18.496Z,101194.13
2022-09-06T03:23:50.954Z,101202.16
2022-09-06T03:26:23.313Z,101199.50
2022-09-06T03:28:56.843Z,101202.44
2022-09-06T03:31:29.218Z,101201.75
2022-09-06T03:34:01.632Z,101195.97
2022-09-06T03:36:34.106Z,101200.88
2022-09-06T03:39:07.407Z,101202.56
2022-09-06T03:41:39.868Z,101209.03
2022-09-06T03:44:12.252Z,101204.34
2022-09-06T03:46:44.617Z,101205.59
2022-09-06T03:49:16.981Z,101200.59
2022-09-06T03:51:49.471Z,101192.69
2022-09-06T03:54:21.811Z,101212.63
2022-09-06T03:56:54.491Z,101197.59
2022-09-06T03:59:26.974Z,101203.28
2022-09-06T04:01:59.474Z,101194.75
2022-09-06T04:04:32.010Z,101203.53
2022-09-06T04:07:04.368Z,101199.19
2022-09-06T04:09:37.413Z,101193.31
2022-09-06T04:12:09.765Z,101203.63
2022-09-06T04:14:42.148Z,101207.75
2022-09-06T04:17:14.711Z,101215.78
2022-09-06T04:19:47.118Z,101211.34
2022-09-06T04:22:19.457Z,101212.56
2022-09-06T04:24:54.352Z,101210.09
2022-09-06T04:27:26.747Z,101215.78
2022-09-06T04:29:59.314Z,101211.44
2022-09-06T04:32:32.841Z,101207.09
2022-09-06T04:35:05.707Z,101219.34
2022-09-06T04:37:38.078Z,101215.78
2022-09-06T04:40:10.826Z,101216.69
2022-09-06T04:42:43.392Z,101220.81
2022-09-06T04:45:16.122Z,101220.56
2022-09-06T04:47:50.267Z,101223.59
2022-09-06T04:50:22.615Z,101222.59
2022-09-06T04:52:54.998Z,101223.16
2022-09-06T04:55:29.260Z,101232.03
2022-09-06T04:58:01.763Z,101227.38
2022-09-06T05:00:34.822Z,101232.25
2022-09-06T05:03:07.242Z,101235.59
2022-09-06T05:05:39.817Z,101233.81
2022-09-06T05:08:12.279Z,101237.13
2022-09-06T05:10:44.619Z,101232.91
2022-09-06T05:13:17.008Z,101232.91
2022-09-06T05:15:49.380Z,101241.56
2022-09-06T05:18:21.845Z,101240.78
2022-09-06T05:20:54.440Z,101236.81
2022-09-06T05:23:27.363Z,101231.91
2022-09-06T05:25:59.689Z,101237.25
2022-09-06T05:28:32.376Z,101240.94
2022-09-06T05:31:24.824Z,101231.94
2022-09-06T05:33:57.887Z,101230.06
2022-09-06T05:36:30.705Z,101228.81
2022-09-06T05:39:03.127Z,101233.88
2022-09-06T05:41:35.704Z,101232.78
2022-09-06T05:44:08.044Z,101230.75
2022-09-06T05:46:45.192Z,101227.59
2022-09-06T05:49:17.581Z,101232.03
2022-09-06T05:51:51.074Z,101236.00
2022-09-06T05:54:23.545Z,101237.19
2022-09-06T05:56:55.976Z,101232.03
2022-09-06T05:59:28.455Z,101231.16
2022-09-06T06:02:03.353Z,101235.25
2022-09-06T06:04:39.035Z,101233.44
2022-09-06T06:07:12.964Z,101237.03
2022-09-06T06:09:45.479Z,101237.44
2022-09-06T06:12:17.853Z,101241.03
2022-09-06T06:14:50.204Z,101254.13
2022-09-06T06:17:22.575Z,101252.16
2022-09-06T06:19:55.365Z,101248.63
2022-09-06T06:22:27.762Z,101246.50
2022-09-06T06:25:00.191Z,101243.75
2022-09-06T06:27:34.798Z,101241.00
2022-09-06T06:30:07.470Z,101240.25
2022-09-06T06:32:40.397Z,101247.38
2022-09-06T06:35:12.777Z,101246.31
2022-09-06T06:37:45.845Z,101241.84
2022-09-06T06:40:18.267Z,101252.25
2022-09-06T06:42:50.646Z,101244.19
2022-09-06T06:45:23.123Z,101247.72
2022-09-06T06:47:55.702Z,101252.81
2022-09-06T06:50:28.216Z,101245.91
2022-09-06T06:53:00.574Z,101252.91
2022-09-06T06:55:32.942Z,101253.78
2022-09-06T06:58:05.413Z,101249.25
2022-09-06T07:00:40.479Z,101247.78
2022-09-06T07:03:13.246Z,101241.13
2022-09-06T07:08:41.441Z,101250.66
2022-09-06T07:11:14.782Z,101241.34
2022-09-06T07:13:47.141Z,101246.00
2022-09-06T07:16:20.678Z,101239.34
2022-09-06T07:18:54.085Z,101244.84
2022-09-06T07:21:42.526Z,101251.63
2022-09-06T07:24:14.972Z,101248.09
2022-09-06T07:29:39.685Z,101251.06
2022-09-06T07:32:12.391Z,101262.03
2022-09-06T07:34:45.089Z,101254.06
2022-09-06T07:37:17.478Z,101255.84
2022-09-06T07:39:49.928Z,101262.28
2022-09-06T07:42:22.401Z,101269.63
2022-09-06T07:44:57.661Z,101263.38
2022-09-06T07:53:20.469Z,101271.97
2022-09-06T07:56:02.778Z,101269.84
2022-09-06T07:58:35.366Z,101270.41
2022-09-06T08:01:32.745Z,101266.06
2022-09-06T08:04:06.474Z,101259.19
2022-09-06T08:09:32.901Z,101251.16
2022-09-06T08:12:07.507Z,101270.09
2022-09-06T08:14:40.023Z,101262.25
2022-09-06T08:17:12.521Z,101267.28
2022-09-06T08:19:45.073Z,101262.13
2022-09-06T08:22:17.505Z,101271.16
2022-09-06T08:24:49.877Z,101275.38
2022-09-06T08:27:22.221Z,101268.63
2022-09-06T08:29:54.608Z,101272.94
2022-09-06T08:32:27.007Z,101273.50
2022-09-06T08:34:59.370Z,101273.59
2022-09-06T08:37:31.707Z,101267.88
2022-09-06T08:40:04.313Z,101277.00
2022-09-06T08:42:40.189Z,101295.91
2022-09-06T08:45:15.671Z,101293.19
2022-09-06T08:47:49.841Z,101265.81
2022-09-06T08:50:22.691Z,101255.25
2022-09-06T08:53:15.725Z,101258.63
2022-09-06T08:56:04.297Z,101252.00
2022-09-06T08:58:39.432Z,101261.75
2022-09-06T09:01:14.416Z,101275.78
2022-09-06T09:03:47.127Z,101280.44
2022-09-06T09:06:19.584Z,101263.41
2022-09-06T09:08:55.027Z,101264.34
2022-09-06T09:11:28.679Z,101272.94
2022-09-06T09:14:03.877Z,101264.50
2022-09-06T09:16:36.326Z,101269.63
2022-09-06T09:19:09.451Z,101262.34
2022-09-06T09:21:41.956Z,101264.94
2022-09-06T09:24:15.775Z,101267.06
2022-09-06T09:26:48.172Z,101255.13
2022-09-06T09:29:25.353Z,101259.47
2022-09-06T09:32:00.345Z,101259.53
2022-09-06T09:34:37.691Z,101253.38
2022-09-06T09:40:16.152Z,101274.56
2022-09-06T09:42:48.632Z,101268.66
2022-09-06T09:45:21.108Z,101269.56
2022-09-06T09:47:53.564Z,101267.13
2022-09-06T09:50:33.072Z,101275.66
2022-09-06T09:53:13.634Z,101276.41
2022-09-06T09:55:46.896Z,101271.66
2022-09-06T09:58:21.344Z,101263.69
2022-09-06T10:01:12.657Z,101263.38
2022-09-06T10:09:33.578Z,101268.13
2022-09-06T10:12:06.496Z,101263.72
2022-09-06T10:14:46.386Z,101267.22
2022-09-06T10:17:30.732Z,101262.91
2022-09-06T10:20:04.111Z,101274.47
2022-09-06T10:22:42.541Z,101281.75
2022-09-06T10:25:18.043Z,101273.91
2022-09-06T10:28:10.830Z,101266.09
2022-09-06T10:30:56.309Z,101273.25
2022-09-06T10:33:47.681Z,101275.38
2022-09-06T10:36:24.843Z,101276.41
2022-09-06T10:39:03.950Z,101269.38
2022-09-06T10:41:47.414Z,101265.47
2022-09-06T10:44:37.876Z,101263.00
2022-09-06T10:47:11.375Z,101268.25
2022-09-06T10:49:50.773Z,101267.59
2022-09-06T10:52:26.905Z,101256.09
2022-09-06T10:55:05.270Z,101250.78
2022-09-06T11:00:46.681Z,101264.25
2022-09-06T11:06:17.273Z,101251.19
2022-09-06T11:08:53.462Z,101269.69
2022-09-06T11:11:44.573Z,101265.00
2022-09-06T11:14:18.786Z,101263.34
2022-09-06T11:16:54.639Z,101266.22
2022-09-06T11:19:29.413Z,101266.25
2022-09-06T11:22:07.249Z,101278.84
2022-09-06T11:24:42.725Z,101271.75
2022-09-06T11:27:20.736Z,101278.16
2022-09-06T11:29:56.751Z,101278.53
2022-09-06T11:32:33.104Z,101278.66
2022-09-06T11:35:11.162Z,101292.31
2022-09-06T11:37:44.640Z,101279.19
2022-09-06T11:40:32.375Z,101295.22
2022-09-06T11:43:04.834Z,101282.13
2022-09-06T11:45:45.647Z,101290.69
2022-09-06T11:48:24.245Z,101287.06
2022-09-06T11:50:59.736Z,101277.47
2022-09-06T11:53:34.350Z,101267.94
2022-09-06T11:56:06.761Z,101264.16
2022-09-06T11:58:41.884Z,101260.88
2022-09-06T12:01:16.488Z,101265.28
2022-09-06T12:04:05.868Z,101264.38
2022-09-06T12:06:43.898Z,101265.38
2022-09-06T12:09:37.747Z,101267.06
2022-09-06T12:12:16.334Z,101268.34
2022-09-06T12:14:49.584Z,101257.34
2022-09-06T12:17:24.565Z,101256.88
2022-09-06T12:20:07.522Z,101262.31
2022-09-06T12:22:40.328Z,101257.69
2022-09-06T12:25:31.931Z,101257.03
2022-09-06T12:28:05.280Z,101252.94
2022-09-06T12:30:42.229Z,101247.41
2022-09-06T12:33:19.102Z,101251.72
2022-09-06T12:35:59.276Z,101245.25
2022-09-06T12:38:32.426Z,101247.47
2022-09-06T12:41:05.131Z,101243.06
2022-09-06T12:43:38.768Z,101246.47
2022-09-06T12:46:11.429Z,101240.91
2022-09-06T12:48:59.004Z,101236.69
2022-09-06T12:51:31.936Z,101236.34
2022-09-06T12:54:17.105Z,101226.81
2022-09-06T12:56:50.259Z,101223.97
2022-09-06T12:59:25.155Z,101217.22
2022-09-06T13:02:08.649Z,101215.13
2022-09-06T13:04:42.558Z,101227.25
2022-09-06T13:07:16.553Z,101214.25
2022-09-06T13:09:51.922Z,101213.16
2022-09-06T13:12:31.993Z,101205.78
2022-09-06T13:15:17.880Z,101207.66
2022-09-06T13:17:50.544Z,101200.72
2022-09-06T13:20:29.508Z,101215.19
2022-09-06T13:23:10.352Z,101207.22
2022-09-06T13:25:47.148Z,101214.66
2022-09-06T13:28:29.517Z,101200.84
2022-09-06T13:31:22.296Z,101203.66
2022-09-06T13:33:57.034Z,101197.25
2022-09-06T13:36:30.935Z,101196.84
2022-09-06T13:39:04.441Z,101187.59
2022-09-06T13:41:38.030Z,101183.66
2022-09-06T13:44:16.249Z,101177.13
2022-09-06T13:46:53.353Z,101171.84
2022-09-06T13:49:27.487Z,101148.94
2022-09-06T13:52:03.905Z,101158.44
2022-09-06T13:54:36.621Z,101156.94
2022-09-06T13:57:09.882Z,101145.34
2022-09-06T13:59:43.045Z,101151.16
2022-09-06T14:02:20.764Z,101148.59
2022-09-06T14:04:53.198Z,101146.22
2022-09-06T14:07:25.662Z,101139.91
2022-09-06T14:09:58.059Z,101149.41
2022-09-06T14:12:30.547Z,101143.97
2022-09-06T14:15:03.022Z,101143.97
2022-09-06T14:17:35.454Z,101151.41
2022-09-06T14:20:08.645Z,101154.06
2022-09-06T14:22:41.014Z,101157.38
2022-09-06T14:25:13.514Z,101154.34
2022-09-06T14:27:48.471Z,101148.00
2022-09-06T14:30:20.876Z,101146.34
2022-09-06T14:32:53.311Z,101139.47
2022-09-06T14:35:26.085Z,101146.53
2022-09-06T14:37:58.732Z,101128.84
2022-09-06T14:40:34.153Z,101132.31
2022-09-06T14:43:06.697Z,101133.09
2022-09-06T14:45:39.116Z,101128.56
2022-09-06T14:48:11.482Z,101121.22
2022-09-06T14:50:43.836Z,101117.78
2022-09-06T14:53:40.403Z,101115.06
2022-09-06T14:56:10.276Z,101098.16
2022-09-06T14:58:43.094Z,101095.59
2022-09-06T15:01:15.552Z,101103.88
2022-09-06T15:03:51.439Z,101093.81
2022-09-06T15:06:24.651Z,101084.84
2022-09-06T15:08:59.570Z,101081.16
2022-09-06T15:11:34.309Z,101088.16
2022-09-06T15:14:17.782Z,101079.97
2022-09-06T15:16:55.783Z,101081.16
2022-09-06T15:19:29.254Z,101077.13
2022-09-06T15:22:02.087Z,101074.84
2022-09-06T15:24:34.773Z,101071.44
2022-09-06T15:27:07.130Z,101065.22
2022-09-06T15:29:39.533Z,101065.88
2022-09-06T15:32:11.973Z,101068.00
2022-09-06T15:34:44.766Z,101061.41
2022-09-06T15:37:17.157Z,101064.97
2022-09-06T15:39:49.657Z,101065.19
2022-09-06T15:42:22.059Z,101058.94
2022-09-06T15:44:55.261Z,101058.19
2022-09-06T15:47:27.633Z,101053.06
2022-09-06T15:50:00.220Z,101053.41
2022-09-06T15:52:32.585Z,101047.53
2022-09-06T15:55:23.715Z,101050.25
2022-09-06T15:57:56.080Z,101052.53
2022-09-06T16:00:28.498Z,101053.94
2022-09-06T16:03:01.003Z,101042.28
2022-09-06T16:08:29.515Z,101049.91
2022-09-06T16:11:07.241Z,101046.31
2022-09-06T16:13:40.571Z,101044.22
2022-09-06T16:16:15.433Z,101044.69
2022-09-06T16:18:48.350Z,101041.19
2022-09-06T16:21:23.868Z,101034.81
2022-09-06T16:23:57.811Z,101037.34
2022-09-06T16:26:34.049Z,101033.56
2022-09-06T16:29:09.732Z,101025.03
2022-09-06T16:31:43.844Z,101033.94
2022-09-06T16:34:16.319Z,101030.09
2022-09-06T16:36:50.113Z,101026.28
2022-09-06T16:39:22.514Z,101023.19
2022-09-06T16:41:54.891Z,101017.69
2022-09-06T16:44:27.638Z,101010.66
2022-09-06T16:47:03.841Z,101010.50
2022-09-06T16:49:36.187Z,101015.38
2022-09-06T16:52:08.541Z,101011.28
2022-09-06T16:54:41.495Z,101011.28
2022-09-06T16:57:14.773Z,101010.50
2022-09-06T16:59:48.551Z,101013.63
2022-09-06T17:02:22.189Z,101012.94
2022-09-06T17:04:54.667Z,101012.00
2022-09-06T17:07:27.018Z,101019.38
2022-09-06T17:09:59.410Z,101008.09
2022-09-06T17:12:32.607Z,101010.41
2022-09-06T17:15:05.191Z,101008.69
2022-09-06T17:17:37.538Z,101012.41
2022-09-06T17:20:09.947Z,101014.06
2022-09-06T17:22:42.297Z,101016.78
2022-09-06T17:25:14.690Z,101017.88
2022-09-06T17:27:47.040Z,101014.66
2022-09-06T17:30:19.457Z,101020.59
2022-09-06T17:32:52.028Z,101009.34
2022-09-06T17:35:24.696Z,101003.75
2022-09-06T17:37:57.115Z,101014.56
2022-09-06T17:40:29.483Z,101012.56
2022-09-06T17:43:02.210Z,101015.72
2022-09-06T17:45:38.821Z,101008.88
2022-09-06T17:48:11.254Z,101010.22
2022-09-06T17:50:44.346Z,101009.03
2022-09-06T17:53:16.799Z,101003.69
2022-09-06T17:55:52.016Z,101011.69
2022-09-06T17:58:26.661Z,101005.59
2022-09-06T18:01:37.013Z,100991.22
2022-09-06T18:04:10.241Z,100982.25
2022-09-06T18:06:43.586Z,100977.19
2022-09-06T18:09:17.497Z,100979.19
2022-09-06T18:11:50.044Z,100958.91
2022-09-06T18:14:23.167Z,100956.69
2022-09-06T18:16:55.670Z,100954.38
2022-09-06T18:19:47.336Z,100961.09
2022-09-06T18:22:22.653Z,100960.59
2022-09-06T18:24:58.149Z,100959.56
2022-09-06T18:27:34.943Z,100967.72
2022-09-06T18:30:10.583Z,100970.25
2022-09-06T18:32:45.391Z,100968.25
2022-09-06T18:35:17.948Z,100956.47
2022-09-06T18:37:50.305Z,100956.50
2022-09-06T18:40:22.645Z,100962.84
2022-09-06T18:42:55.195Z,100967.88
2022-09-06T18:45:28.471Z,100959.09
2022-09-06T18:48:00.882Z,100949.63
2022-09-06T18:50:39.017Z,100945.59
2022-09-06T18:53:11.751Z,100942.00
2022-09-06T18:55:44.308Z,100943.53
2022-09-06T18:58:16.725Z,100949.88
2022-09-06T19:00:49.431Z,100938.13
2022-09-06T19:03:21.897Z,100946.34
2022-09-06T19:06:01.638Z,100944.28
2022-09-06T19:08:34.575Z,100935.63
2022-09-06T19:11:09.215Z,100935.63
2022-09-06T19:13:42.194Z,100942.78
2022-09-06T19:16:14.672Z,100933.13
2022-09-06T19:18:47.599Z,100931.06
2022-09-06T19:21:22.057Z,100937.22
2022-09-06T19:24:10.476Z,100926.50
2022-09-06T19:26:44.094Z,100915.00
2022-09-06T19:29:17.832Z,100916.03
2022-09-06T19:31:55.033Z,100911.91
2022-09-06T19:34:27.629Z,100918.06
2022-09-06T19:37:00.379Z,100914.00
2022-09-06T19:39:47.225Z,100904.78
2022-09-06T19:42:23.058Z,100901.97
2022-09-06T19:44:57.827Z,100903.50
2022-09-06T19:47:31.418Z,100901.97
2022-09-06T19:50:40.909Z,100906.81
2022-09-06T19:53:29.382Z,100889.63
2022-09-06T19:56:13.662Z,100892.94
2022-09-06T19:58:46.191Z,100888.28
2022-09-06T20:01:18.602Z,100887.97
2022-09-06T20:03:51.495Z,100892.03
2022-09-06T20:06:24.247Z,100896.28
2022-09-06T20:08:57.415Z,100882.91
2022-09-06T20:11:30.965Z,100877.22
2022-09-06T20:14:03.802Z,100878.66
2022-09-06T20:16:41.157Z,100871.69
2022-09-06T20:19:17.067Z,100858.09
2022-09-06T20:21:49.604Z,100863.88
2022-09-06T20:24:22.140Z,100853.09
2022-09-06T20:26:54.554Z,100848.69
2022-09-06T20:29:29.765Z,100860.06
2022-09-06T20:32:03.775Z,100849.28
2022-09-06T20:34:38.272Z,100839.06
2022-09-06T20:37:10.848Z,100832.91
2022-09-06T20:39:43.670Z,100832.91
2022-09-06T20:42:16.196Z,100821.69
2022-09-06T20:44:48.579Z,100814.53
2022-09-06T20:47:24.171Z,100815.31
2022-09-06T20:49:57.662Z,100807.94
2022-09-06T20:52:33.162Z,100814.34
2022-09-06T20:55:06.327Z,100798.06
2022-09-06T20:57:38.698Z,100790.94
2022-09-06T21:00:14.345Z,100782.78
2022-09-06T21:02:46.991Z,100787.13
2022-09-06T21:05:19.529Z,100781.09
2022-09-06T21:07:53.851Z,100780.63
2022-09-06T21:10:26.244Z,100779.19
2022-09-06T21:13:01.647Z,100774.06
2022-09-06T21:15:34.684Z,100767.22
2022-09-06T21:18:08.425Z,100769.53
2022-09-06T21:20:40.905Z,100777.16
2022-09-06T21:23:15.510Z,100782.06
2022-09-06T21:26:01.805Z,100780.56
2022-09-06T21:28:35.411Z,100783.38
2022-09-06T21:31:12.016Z,100779.59
2022-09-06T21:33:46.309Z,100793.63
2022-09-06T21:36:21.831Z,100791.84
2022-09-06T21:38:55.497Z,100788.81
2022-09-06T21:41:28.713Z,100776.88
2022-09-06T21:44:02.377Z,100772.81
2022-09-06T21:46:35.892Z,100751.91
2022-09-06T21:49:09.960Z,100752.97
2022-09-06T21:51:44.744Z,100761.94
2022-09-06T21:54:17.311Z,100766.28
2022-09-06T21:56:49.779Z,100777.28
2022-09-06T21:59:22.202Z,100794.94
2022-09-06T22:01:54.726Z,100792.94
2022-09-06T22:04:27.163Z,100797.53
2022-09-06T22:06:59.545Z,100806.47
2022-09-06T22:09:33.133Z,100803.69
2022-09-06T22:12:05.576Z,100811.31
2022-09-06T22:14:38.700Z,100811.03
2022-09-06T22:17:11.086Z,100808.41
2022-09-06T22:19:43.470Z,100818.50
2022-09-06T22:22:15.842Z,100845.06
2022-09-06T22:24:48.514Z,100878.25
2022-09-06T22:27:20.958Z,100911.53
2022-09-06T22:29:55.803Z,100950.25
2022-09-06T22:32:32.642Z,100985.88
2022-09-06T22:35:05.963Z,100954.97
2022-09-06T22:37:38.617Z,100950.25
2022-09-06T22:40:11.564Z,100906.63
2022-09-06T22:42:44.031Z,100897.50
2022-09-06T22:45:16.929Z,100924.03
2022-09-06T22:47:54.872Z,100935.91
2022-09-06T22:50:27.634Z,100925.88
2022-09-06T22:53:00.230Z,100930.53
2022-09-06T22:55:32.788Z,100968.25
2022-09-06T22:58:08.617Z,100999.78
2022-09-06T23:00:45.678Z,101017.09
2022-09-06T23:03:18.425Z,101021.25
2022-09-06T23:05:51.000Z,101029.44
2022-09-06T23:08:23.845Z,101031.63
2022-09-06T23:10:56.338Z,101016.38
2022-09-06T23:13:28.834Z,101008.31
2022-09-06T23:16:08.569Z,101000.22
2022-09-06T23:18:43.900Z,100998.66
2022-09-06T23:21:17.657Z,101001.22
2022-09-06T23:23:51.143Z,100992.28
2022-09-06T23:26:33.048Z,100986.38
2022-09-06T23:29:13.014Z,100983.28
2022-09-06T23:31:47.015Z,100991.75
2022-09-06T23:34:22.290Z,100998.59
2022-09-06T23:37:00.257Z,100999.84
2022-09-06T23:39:32.736Z,100995.19
2022-09-06T23:42:05.729Z,100991.66
2022-09-06T23:44:38.245Z,100994.00
2022-09-06T23:47:13.372Z,101007.94
2022-09-06T23:49:45.889Z,101016.00
2022-09-06T23:52:18.511Z,101013.53
2022-09-06T23:54:58.889Z,101020.94
2022-09-06T23:57:31.395Z,101017.53
